sensor_id;sensor_type;location;lat;lon;timestamp;P1;durP1;ratioP1;P2;durP2;ratioP2
79348;SDS011;68817;48.110;11.660;2023-07-13T00:01:16;3.55;;;2.65;;
79348;SDS011;68817;48.110;11.660;2023-07-13T00:03:42;4.85;;;2.40;;
79348;SDS011;68817;48.110;11.660;2023-07-13T00:06:08;3.20;;;2.40;;
79348;SDS011;68817;48.110;11.660;2023-07-13T00:08:34;3.15;;;1.98;;
79348;SDS011;68817;48.110;11.660;2023-07-13T00:11:00;3.15;;;2.55;;
79348;SDS011;68817;48.110;11.660;2023-07-13T00:13:29;3.83;;;2.60;;
79348;SDS011;68817;48.110;11.660;2023-07-13T00:15:57;3.63;;;2.30;;
79348;SDS011;68817;48.110;11.660;2023-07-13T00:18:23;3.85;;;2.38;;
79348;SDS011;68817;48.110;11.660;2023-07-13T00:20:48;4.18;;;2.20;;
79348;SDS011;68817;48.110;11.660;2023-07-13T00:23:14;4.25;;;2.20;;
79348;SDS011;68817;48.110;11.660;2023-07-13T00:25:39;3.30;;;2.38;;
79348;SDS011;68817;48.110;11.660;2023-07-13T00:28:05;3.20;;;2.10;;
79348;SDS011;68817;48.110;11.660;2023-07-13T00:30:30;4.43;;;2.50;;
79348;SDS011;68817;48.110;11.660;2023-07-13T00:32:57;3.08;;;2.03;;
79348;SDS011;68817;48.110;11.660;2023-07-13T00:35:22;2.35;;;2.00;;
79348;SDS011;68817;48.110;11.660;2023-07-13T00:37:48;2.95;;;2.05;;
79348;SDS011;68817;48.110;11.660;2023-07-13T00:40:14;3.70;;;2.20;;
79348;SDS011;68817;48.110;11.660;2023-07-13T00:42:40;3.10;;;2.33;;
79348;SDS011;68817;48.110;11.660;2023-07-13T00:46:06;4.18;;;2.20;;
79348;SDS011;68817;48.110;11.660;2023-07-13T00:47:52;3.80;;;2.40;;
79348;SDS011;68817;48.110;11.660;2023-07-13T00:50:17;5.03;;;2.05;;
79348;SDS011;68817;48.110;11.660;2023-07-13T00:52:46;3.78;;;1.88;;
79348;SDS011;68817;48.110;11.660;2023-07-13T00:57:41;4.50;;;2.25;;
79348;SDS011;68817;48.110;11.660;2023-07-13T01:00:07;2.63;;;2.00;;
79348;SDS011;68817;48.110;11.660;2023-07-13T01:02:34;5.35;;;2.30;;
79348;SDS011;68817;48.110;11.660;2023-07-13T01:05:10;2.70;;;1.80;;
79348;SDS011;68817;48.110;11.660;2023-07-13T01:07:36;2.60;;;1.92;;
79348;SDS011;68817;48.110;11.660;2023-07-13T01:10:02;3.42;;;2.08;;
79348;SDS011;68817;48.110;11.660;2023-07-13T01:12:28;4.25;;;2.38;;
79348;SDS011;68817;48.110;11.660;2023-07-13T01:14:58;4.30;;;2.10;;
79348;SDS011;68817;48.110;11.660;2023-07-13T01:17:25;2.63;;;2.00;;
79348;SDS011;68817;48.110;11.660;2023-07-13T01:19:51;3.85;;;2.03;;
79348;SDS011;68817;48.110;11.660;2023-07-13T01:22:17;2.22;;;1.77;;
79348;SDS011;68817;48.110;11.660;2023-07-13T01:24:45;2.40;;;1.77;;
79348;SDS011;68817;48.110;11.660;2023-07-13T01:27:12;3.03;;;1.95;;
79348;SDS011;68817;48.110;11.660;2023-07-13T01:29:40;2.88;;;2.30;;
79348;SDS011;68817;48.110;11.660;2023-07-13T01:32:10;3.17;;;2.28;;
79348;SDS011;68817;48.110;11.660;2023-07-13T01:34:37;4.72;;;2.28;;
79348;SDS011;68817;48.110;11.660;2023-07-13T01:37:03;4.68;;;2.20;;
79348;SDS011;68817;48.110;11.660;2023-07-13T01:39:30;2.65;;;2.35;;
79348;SDS011;68817;48.110;11.660;2023-07-13T01:41:55;3.67;;;1.98;;
79348;SDS011;68817;48.110;11.660;2023-07-13T01:44:20;3.83;;;2.15;;
79348;SDS011;68817;48.110;11.660;2023-07-13T01:46:46;4.75;;;2.55;;
79348;SDS011;68817;48.110;11.660;2023-07-13T01:49:11;2.83;;;2.00;;
79348;SDS011;68817;48.110;11.660;2023-07-13T01:51:36;3.80;;;2.22;;
79348;SDS011;68817;48.110;11.660;2023-07-13T01:54:03;3.08;;;2.17;;
79348;SDS011;68817;48.110;11.660;2023-07-13T01:56:28;3.83;;;2.50;;
79348;SDS011;68817;48.110;11.660;2023-07-13T01:58:54;5.60;;;2.55;;
79348;SDS011;68817;48.110;11.660;2023-07-13T02:01:19;3.45;;;2.20;;
79348;SDS011;68817;48.110;11.660;2023-07-13T02:03:45;3.60;;;2.63;;
79348;SDS011;68817;48.110;11.660;2023-07-13T02:06:11;5.38;;;2.05;;
79348;SDS011;68817;48.110;11.660;2023-07-13T02:08:37;2.85;;;2.03;;
79348;SDS011;68817;48.110;11.660;2023-07-13T02:11:03;4.93;;;1.90;;
79348;SDS011;68817;48.110;11.660;2023-07-13T02:13:28;4.32;;;2.25;;
79348;SDS011;68817;48.110;11.660;2023-07-13T02:15:54;4.90;;;2.58;;
79348;SDS011;68817;48.110;11.660;2023-07-13T02:18:19;5.13;;;2.28;;
79348;SDS011;68817;48.110;11.660;2023-07-13T02:20:44;3.55;;;2.50;;
79348;SDS011;68817;48.110;11.660;2023-07-13T02:23:10;3.28;;;2.67;;
79348;SDS011;68817;48.110;11.660;2023-07-13T02:25:36;4.32;;;2.28;;
79348;SDS011;68817;48.110;11.660;2023-07-13T02:28:01;3.25;;;2.13;;
79348;SDS011;68817;48.110;11.660;2023-07-13T02:30:27;2.55;;;1.95;;
79348;SDS011;68817;48.110;11.660;2023-07-13T02:32:55;5.00;;;2.50;;
79348;SDS011;68817;48.110;11.660;2023-07-13T02:35:20;4.78;;;2.30;;
79348;SDS011;68817;48.110;11.660;2023-07-13T02:37:46;3.08;;;2.20;;
79348;SDS011;68817;48.110;11.660;2023-07-13T02:40:11;3.50;;;2.25;;
79348;SDS011;68817;48.110;11.660;2023-07-13T02:42:37;4.07;;;2.40;;
79348;SDS011;68817;48.110;11.660;2023-07-13T02:45:02;3.28;;;2.28;;
79348;SDS011;68817;48.110;11.660;2023-07-13T02:47:28;3.63;;;2.53;;
79348;SDS011;68817;48.110;11.660;2023-07-13T02:49:53;2.42;;;2.10;;
79348;SDS011;68817;48.110;11.660;2023-07-13T02:52:19;4.53;;;2.38;;
79348;SDS011;68817;48.110;11.660;2023-07-13T02:54:44;6.30;;;2.83;;
79348;SDS011;68817;48.110;11.660;2023-07-13T02:57:10;3.30;;;2.10;;
79348;SDS011;68817;48.110;11.660;2023-07-13T02:59:35;3.83;;;2.50;;
79348;SDS011;68817;48.110;11.660;2023-07-13T03:02:02;4.68;;;2.83;;
79348;SDS011;68817;48.110;11.660;2023-07-13T03:04:28;4.35;;;2.60;;
79348;SDS011;68817;48.110;11.660;2023-07-13T03:06:54;3.40;;;2.65;;
79348;SDS011;68817;48.110;11.660;2023-07-13T03:09:25;4.82;;;2.88;;
79348;SDS011;68817;48.110;11.660;2023-07-13T03:11:53;10.55;;;4.30;;
79348;SDS011;68817;48.110;11.660;2023-07-13T03:14:25;10.05;;;4.10;;
79348;SDS011;68817;48.110;11.660;2023-07-13T03:16:51;6.55;;;3.13;;
79348;SDS011;68817;48.110;11.660;2023-07-13T03:19:18;8.95;;;3.60;;
79348;SDS011;68817;48.110;11.660;2023-07-13T03:24:13;5.17;;;2.73;;
79348;SDS011;68817;48.110;11.660;2023-07-13T03:26:38;7.68;;;3.22;;
79348;SDS011;68817;48.110;11.660;2023-07-13T03:29:05;6.80;;;3.50;;
79348;SDS011;68817;48.110;11.660;2023-07-13T03:31:33;5.35;;;3.30;;
79348;SDS011;68817;48.110;11.660;2023-07-13T03:33:59;10.32;;;3.60;;
79348;SDS011;68817;48.110;11.660;2023-07-13T03:36:27;5.20;;;3.15;;
79348;SDS011;68817;48.110;11.660;2023-07-13T03:38:57;7.30;;;3.35;;
79348;SDS011;68817;48.110;11.660;2023-07-13T03:41:31;5.38;;;3.30;;
79348;SDS011;68817;48.110;11.660;2023-07-13T03:43:57;5.38;;;2.92;;
79348;SDS011;68817;48.110;11.660;2023-07-13T03:46:25;5.28;;;3.33;;
79348;SDS011;68817;48.110;11.660;2023-07-13T03:48:50;5.07;;;3.08;;
79348;SDS011;68817;48.110;11.660;2023-07-13T03:51:16;3.80;;;2.75;;
79348;SDS011;68817;48.110;11.660;2023-07-13T03:53:43;4.28;;;3.25;;
79348;SDS011;68817;48.110;11.660;2023-07-13T03:56:11;5.47;;;3.17;;
79348;SDS011;68817;48.110;11.660;2023-07-13T03:58:38;5.88;;;3.05;;
79348;SDS011;68817;48.110;11.660;2023-07-13T04:03:38;6.32;;;3.00;;
79348;SDS011;68817;48.110;11.660;2023-07-13T04:06:04;4.57;;;2.55;;
79348;SDS011;68817;48.110;11.660;2023-07-13T04:08:32;6.25;;;3.38;;
79348;SDS011;68817;48.110;11.660;2023-07-13T04:10:59;4.82;;;2.80;;
79348;SDS011;68817;48.110;11.660;2023-07-13T04:13:25;6.45;;;3.47;;
79348;SDS011;68817;48.110;11.660;2023-07-13T04:15:51;5.50;;;3.03;;
79348;SDS011;68817;48.110;11.660;2023-07-13T04:18:17;3.90;;;2.95;;
79348;SDS011;68817;48.110;11.660;2023-07-13T04:20:42;4.57;;;3.35;;
79348;SDS011;68817;48.110;11.660;2023-07-13T04:23:08;4.22;;;2.83;;
79348;SDS011;68817;48.110;11.660;2023-07-13T04:25:34;4.90;;;3.10;;
79348;SDS011;68817;48.110;11.660;2023-07-13T04:27:59;4.38;;;3.05;;
79348;SDS011;68817;48.110;11.660;2023-07-13T04:30:25;6.80;;;3.38;;
79348;SDS011;68817;48.110;11.660;2023-07-13T04:32:51;4.93;;;3.28;;
79348;SDS011;68817;48.110;11.660;2023-07-13T04:35:18;4.72;;;3.13;;
79348;SDS011;68817;48.110;11.660;2023-07-13T04:37:49;5.45;;;3.03;;
79348;SDS011;68817;48.110;11.660;2023-07-13T04:40:19;4.80;;;3.03;;
79348;SDS011;68817;48.110;11.660;2023-07-13T04:42:46;6.10;;;2.88;;
79348;SDS011;68817;48.110;11.660;2023-07-13T04:45:15;4.03;;;2.20;;
79348;SDS011;68817;48.110;11.660;2023-07-13T04:47:41;6.47;;;2.80;;
79348;SDS011;68817;48.110;11.660;2023-07-13T04:50:08;5.15;;;2.60;;
79348;SDS011;68817;48.110;11.660;2023-07-13T04:52:36;3.85;;;2.35;;
79348;SDS011;68817;48.110;11.660;2023-07-13T04:55:02;3.42;;;2.53;;
79348;SDS011;68817;48.110;11.660;2023-07-13T04:57:27;4.80;;;2.60;;
79348;SDS011;68817;48.110;11.660;2023-07-13T04:59:53;3.78;;;2.63;;
79348;SDS011;68817;48.110;11.660;2023-07-13T05:02:22;4.88;;;2.92;;
79348;SDS011;68817;48.110;11.660;2023-07-13T05:04:47;4.88;;;2.80;;
79348;SDS011;68817;48.110;11.660;2023-07-13T05:07:13;3.53;;;2.30;;
79348;SDS011;68817;48.110;11.660;2023-07-13T05:09:38;3.88;;;2.88;;
79348;SDS011;68817;48.110;11.660;2023-07-13T05:12:05;3.60;;;2.42;;
79348;SDS011;68817;48.110;11.660;2023-07-13T05:14:32;4.43;;;2.40;;
79348;SDS011;68817;48.110;11.660;2023-07-13T05:17:04;5.65;;;2.47;;
79348;SDS011;68817;48.110;11.660;2023-07-13T05:19:33;5.03;;;2.33;;
79348;SDS011;68817;48.110;11.660;2023-07-13T05:21:59;4.95;;;2.70;;
79348;SDS011;68817;48.110;11.660;2023-07-13T05:24:24;5.00;;;2.67;;
79348;SDS011;68817;48.110;11.660;2023-07-13T05:26:50;5.05;;;2.80;;
79348;SDS011;68817;48.110;11.660;2023-07-13T05:29:15;5.20;;;2.65;;
79348;SDS011;68817;48.110;11.660;2023-07-13T05:31:40;4.35;;;2.50;;
79348;SDS011;68817;48.110;11.660;2023-07-13T05:34:06;4.65;;;2.70;;
79348;SDS011;68817;48.110;11.660;2023-07-13T05:36:31;4.57;;;2.72;;
79348;SDS011;68817;48.110;11.660;2023-07-13T05:38:57;5.28;;;3.03;;
79348;SDS011;68817;48.110;11.660;2023-07-13T05:41:22;3.40;;;2.58;;
79348;SDS011;68817;48.110;11.660;2023-07-13T05:43:47;6.57;;;2.60;;
79348;SDS011;68817;48.110;11.660;2023-07-13T05:46:13;4.93;;;2.88;;
79348;SDS011;68817;48.110;11.660;2023-07-13T05:48:38;4.85;;;2.90;;
79348;SDS011;68817;48.110;11.660;2023-07-13T05:51:04;4.65;;;3.10;;
79348;SDS011;68817;48.110;11.660;2023-07-13T05:53:29;4.68;;;3.03;;
79348;SDS011;68817;48.110;11.660;2023-07-13T05:55:55;5.47;;;3.10;;
79348;SDS011;68817;48.110;11.660;2023-07-13T05:58:20;4.85;;;2.75;;
79348;SDS011;68817;48.110;11.660;2023-07-13T06:00:46;5.05;;;2.90;;
79348;SDS011;68817;48.110;11.660;2023-07-13T06:03:12;6.60;;;2.90;;
79348;SDS011;68817;48.110;11.660;2023-07-13T06:05:38;4.00;;;3.08;;
79348;SDS011;68817;48.110;11.660;2023-07-13T06:08:04;5.68;;;2.92;;
79348;SDS011;68817;48.110;11.660;2023-07-13T06:10:33;6.90;;;2.60;;
79348;SDS011;68817;48.110;11.660;2023-07-13T06:13:00;5.20;;;2.10;;
79348;SDS011;68817;48.110;11.660;2023-07-13T06:15:25;5.05;;;2.85;;
79348;SDS011;68817;48.110;11.660;2023-07-13T06:17:50;4.55;;;2.67;;
79348;SDS011;68817;48.110;11.660;2023-07-13T06:20:16;4.85;;;2.80;;
79348;SDS011;68817;48.110;11.660;2023-07-13T06:22:41;5.07;;;2.35;;
79348;SDS011;68817;48.110;11.660;2023-07-13T06:25:07;5.47;;;2.85;;
79348;SDS011;68817;48.110;11.660;2023-07-13T06:27:32;3.58;;;2.40;;
79348;SDS011;68817;48.110;11.660;2023-07-13T06:29:58;5.68;;;2.15;;
79348;SDS011;68817;48.110;11.660;2023-07-13T06:32:23;3.63;;;2.67;;
79348;SDS011;68817;48.110;11.660;2023-07-13T06:34:48;5.85;;;2.60;;
79348;SDS011;68817;48.110;11.660;2023-07-13T06:37:16;2.85;;;2.10;;
79348;SDS011;68817;48.110;11.660;2023-07-13T06:39:42;5.40;;;2.60;;
79348;SDS011;68817;48.110;11.660;2023-07-13T06:42:07;3.13;;;1.90;;
79348;SDS011;68817;48.110;11.660;2023-07-13T06:44:33;3.70;;;2.53;;
79348;SDS011;68817;48.110;11.660;2023-07-13T06:46:58;2.75;;;2.17;;
79348;SDS011;68817;48.110;11.660;2023-07-13T06:49:23;3.33;;;2.38;;
79348;SDS011;68817;48.110;11.660;2023-07-13T06:51:49;4.38;;;2.28;;
79348;SDS011;68817;48.110;11.660;2023-07-13T06:54:14;4.35;;;2.40;;
79348;SDS011;68817;48.110;11.660;2023-07-13T06:56:39;3.70;;;2.22;;
79348;SDS011;68817;48.110;11.660;2023-07-13T06:59:05;6.93;;;2.80;;
79348;SDS011;68817;48.110;11.660;2023-07-13T07:01:30;4.20;;;2.50;;
79348;SDS011;68817;48.110;11.660;2023-07-13T07:03:56;3.60;;;2.10;;
79348;SDS011;68817;48.110;11.660;2023-07-13T07:06:22;6.90;;;2.40;;
79348;SDS011;68817;48.110;11.660;2023-07-13T07:08:51;5.70;;;2.40;;
79348;SDS011;68817;48.110;11.660;2023-07-13T07:11:18;3.38;;;2.20;;
79348;SDS011;68817;48.110;11.660;2023-07-13T07:13:48;7.25;;;3.00;;
79348;SDS011;68817;48.110;11.660;2023-07-13T07:16:14;4.20;;;2.50;;
79348;SDS011;68817;48.110;11.660;2023-07-13T07:18:40;5.65;;;2.20;;
79348;SDS011;68817;48.110;11.660;2023-07-13T07:21:05;2.83;;;1.90;;
79348;SDS011;68817;48.110;11.660;2023-07-13T07:23:31;4.65;;;2.53;;
79348;SDS011;68817;48.110;11.660;2023-07-13T07:25:56;3.47;;;1.95;;
79348;SDS011;68817;48.110;11.660;2023-07-13T07:28:22;4.63;;;2.55;;
79348;SDS011;68817;48.110;11.660;2023-07-13T07:30:47;6.70;;;2.50;;
79348;SDS011;68817;48.110;11.660;2023-07-13T07:33:13;3.75;;;2.50;;
79348;SDS011;68817;48.110;11.660;2023-07-13T07:35:39;4.35;;;2.15;;
79348;SDS011;68817;48.110;11.660;2023-07-13T07:38:05;6.30;;;2.28;;
79348;SDS011;68817;48.110;11.660;2023-07-13T07:40:30;4.90;;;1.95;;
79348;SDS011;68817;48.110;11.660;2023-07-13T07:42:56;5.20;;;2.30;;
79348;SDS011;68817;48.110;11.660;2023-07-13T07:45:22;4.68;;;1.95;;
79348;SDS011;68817;48.110;11.660;2023-07-13T07:47:48;3.05;;;2.00;;
79348;SDS011;68817;48.110;11.660;2023-07-13T07:50:14;4.35;;;1.92;;
79348;SDS011;68817;48.110;11.660;2023-07-13T07:52:39;6.72;;;2.95;;
79348;SDS011;68817;48.110;11.660;2023-07-13T07:55:06;7.40;;;2.33;;
79348;SDS011;68817;48.110;11.660;2023-07-13T07:57:32;4.53;;;2.28;;
79348;SDS011;68817;48.110;11.660;2023-07-13T07:59:57;3.83;;;2.03;;
79348;SDS011;68817;48.110;11.660;2023-07-13T08:02:24;4.82;;;2.70;;
79348;SDS011;68817;48.110;11.660;2023-07-13T08:04:49;3.90;;;2.03;;
79348;SDS011;68817;48.110;11.660;2023-07-13T08:07:15;4.93;;;2.03;;
79348;SDS011;68817;48.110;11.660;2023-07-13T08:09:40;4.65;;;2.25;;
79348;SDS011;68817;48.110;11.660;2023-07-13T08:12:06;4.55;;;2.10;;
79348;SDS011;68817;48.110;11.660;2023-07-13T08:14:32;4.75;;;2.08;;
79348;SDS011;68817;48.110;11.660;2023-07-13T08:16:57;4.57;;;2.40;;
79348;SDS011;68817;48.110;11.660;2023-07-13T08:19:23;3.50;;;2.42;;
79348;SDS011;68817;48.110;11.660;2023-07-13T08:21:48;3.30;;;2.25;;
79348;SDS011;68817;48.110;11.660;2023-07-13T08:24:14;2.95;;;1.92;;
79348;SDS011;68817;48.110;11.660;2023-07-13T08:26:39;5.53;;;2.50;;
79348;SDS011;68817;48.110;11.660;2023-07-13T08:29:05;6.88;;;2.50;;
79348;SDS011;68817;48.110;11.660;2023-07-13T08:31:30;5.45;;;2.50;;
79348;SDS011;68817;48.110;11.660;2023-07-13T08:33:56;5.55;;;2.33;;
79348;SDS011;68817;48.110;11.660;2023-07-13T08:36:21;3.90;;;2.00;;
79348;SDS011;68817;48.110;11.660;2023-07-13T08:38:46;5.28;;;2.30;;
79348;SDS011;68817;48.110;11.660;2023-07-13T08:41:16;5.30;;;2.70;;
79348;SDS011;68817;48.110;11.660;2023-07-13T08:43:44;4.38;;;2.10;;
79348;SDS011;68817;48.110;11.660;2023-07-13T08:46:13;5.07;;;2.45;;
79348;SDS011;68817;48.110;11.660;2023-07-13T08:48:49;4.57;;;2.45;;
79348;SDS011;68817;48.110;11.660;2023-07-13T08:53:58;7.10;;;2.40;;
79348;SDS011;68817;48.110;11.660;2023-07-13T08:56:28;3.78;;;2.40;;
79348;SDS011;68817;48.110;11.660;2023-07-13T08:59:02;7.40;;;2.80;;
79348;SDS011;68817;48.110;11.660;2023-07-13T09:02:14;4.72;;;2.28;;
79348;SDS011;68817;48.110;11.660;2023-07-13T09:04:45;6.40;;;3.08;;
79348;SDS011;68817;48.110;11.660;2023-07-13T09:08:17;5.07;;;3.08;;
79348;SDS011;68817;48.110;11.660;2023-07-13T09:10:23;4.47;;;3.00;;
79348;SDS011;68817;48.110;11.660;2023-07-13T09:15:56;9.10;;;2.78;;
79348;SDS011;68817;48.110;11.660;2023-07-13T09:18:28;3.97;;;2.38;;
79348;SDS011;68817;48.110;11.660;2023-07-13T09:23:31;6.28;;;2.80;;
79348;SDS011;68817;48.110;11.660;2023-07-13T09:25:59;4.72;;;3.08;;
79348;SDS011;68817;48.110;11.660;2023-07-13T09:28:29;3.38;;;2.20;;
79348;SDS011;68817;48.110;11.660;2023-07-13T09:33:37;5.55;;;2.40;;
79348;SDS011;68817;48.110;11.660;2023-07-13T09:36:15;4.07;;;2.30;;
79348;SDS011;68817;48.110;11.660;2023-07-13T09:38:44;3.88;;;2.20;;
79348;SDS011;68817;48.110;11.660;2023-07-13T09:46:36;5.20;;;2.20;;
79348;SDS011;68817;48.110;11.660;2023-07-13T09:49:02;3.13;;;2.00;;
79348;SDS011;68817;48.110;11.660;2023-07-13T09:51:27;3.92;;;1.90;;
79348;SDS011;68817;48.110;11.660;2023-07-13T09:53:53;3.53;;;2.15;;
79348;SDS011;68817;48.110;11.660;2023-07-13T09:56:20;5.72;;;2.17;;
79348;SDS011;68817;48.110;11.660;2023-07-13T09:58:49;5.40;;;2.22;;
79348;SDS011;68817;48.110;11.660;2023-07-13T10:01:15;7.68;;;2.22;;
79348;SDS011;68817;48.110;11.660;2023-07-13T10:03:51;5.80;;;2.40;;
79348;SDS011;68817;48.110;11.660;2023-07-13T10:06:19;2.92;;;1.88;;
79348;SDS011;68817;48.110;11.660;2023-07-13T10:08:47;4.45;;;2.05;;
79348;SDS011;68817;48.110;11.660;2023-07-13T10:11:21;3.78;;;1.83;;
79348;SDS011;68817;48.110;11.660;2023-07-13T10:16:27;4.32;;;1.90;;
79348;SDS011;68817;48.110;11.660;2023-07-13T10:18:59;4.95;;;1.95;;
79348;SDS011;68817;48.110;11.660;2023-07-13T10:21:28;4.18;;;2.00;;
79348;SDS011;68817;48.110;11.660;2023-07-13T10:24:03;8.63;;;1.88;;
79348;SDS011;68817;48.110;11.660;2023-07-13T10:26:34;5.43;;;1.90;;
79348;SDS011;68817;48.110;11.660;2023-07-13T10:29:02;3.20;;;1.60;;
79348;SDS011;68817;48.110;11.660;2023-07-13T10:31:32;3.55;;;1.60;;
79348;SDS011;68817;48.110;11.660;2023-07-13T10:34:00;4.85;;;1.50;;
79348;SDS011;68817;48.110;11.660;2023-07-13T10:36:28;3.70;;;1.63;;
79348;SDS011;68817;48.110;11.660;2023-07-13T10:38:59;4.60;;;1.52;;
79348;SDS011;68817;48.110;11.660;2023-07-13T10:41:28;4.93;;;1.80;;
79348;SDS011;68817;48.110;11.660;2023-07-13T10:43:56;4.60;;;1.75;;
79348;SDS011;68817;48.110;11.660;2023-07-13T10:46:23;3.40;;;1.60;;
79348;SDS011;68817;48.110;11.660;2023-07-13T10:48:51;4.20;;;1.80;;
79348;SDS011;68817;48.110;11.660;2023-07-13T10:51:19;4.07;;;1.52;;
79348;SDS011;68817;48.110;11.660;2023-07-13T10:53:46;6.45;;;1.70;;
79348;SDS011;68817;48.110;11.660;2023-07-13T10:56:27;4.20;;;1.80;;
79348;SDS011;68817;48.110;11.660;2023-07-13T11:02:26;3.40;;;1.80;;
79348;SDS011;68817;48.110;11.660;2023-07-13T11:04:41;2.97;;;1.48;;
79348;SDS011;68817;48.110;11.660;2023-07-13T11:07:22;4.07;;;1.67;;
79348;SDS011;68817;48.110;11.660;2023-07-13T11:09:56;3.13;;;1.23;;
79348;SDS011;68817;48.110;11.660;2023-07-13T11:18:03;4.97;;;1.30;;
79348;SDS011;68817;48.110;11.660;2023-07-13T11:22:45;3.33;;;1.57;;
79348;SDS011;68817;48.110;11.660;2023-07-13T11:30:41;2.88;;;1.42;;
79348;SDS011;68817;48.110;11.660;2023-07-13T11:36:02;3.47;;;1.30;;
79348;SDS011;68817;48.110;11.660;2023-07-13T11:38:36;3.53;;;1.15;;
79348;SDS011;68817;48.110;11.660;2023-07-13T11:41:05;4.97;;;1.42;;
79348;SDS011;68817;48.110;11.660;2023-07-13T11:43:32;5.13;;;1.40;;
79348;SDS011;68817;48.110;11.660;2023-07-13T11:46:11;2.60;;;1.20;;
79348;SDS011;68817;48.110;11.660;2023-07-13T11:48:37;3.83;;;1.42;;
79348;SDS011;68817;48.110;11.660;2023-07-13T11:51:04;2.92;;;1.30;;
79348;SDS011;68817;48.110;11.660;2023-07-13T11:53:36;5.85;;;1.63;;
79348;SDS011;68817;48.110;11.660;2023-07-13T11:56:04;3.30;;;1.40;;
79348;SDS011;68817;48.110;11.660;2023-07-13T11:58:30;3.97;;;1.67;;
79348;SDS011;68817;48.110;11.660;2023-07-13T12:00:57;3.65;;;1.20;;
79348;SDS011;68817;48.110;11.660;2023-07-13T12:03:25;4.07;;;1.40;;
79348;SDS011;68817;48.110;11.660;2023-07-13T12:05:55;3.22;;;1.40;;
79348;SDS011;68817;48.110;11.660;2023-07-13T12:08:43;3.17;;;1.55;;
79348;SDS011;68817;48.110;11.660;2023-07-13T12:11:15;2.75;;;1.20;;
79348;SDS011;68817;48.110;11.660;2023-07-13T12:13:43;2.08;;;1.30;;
79348;SDS011;68817;48.110;11.660;2023-07-13T12:16:28;4.05;;;1.60;;
79348;SDS011;68817;48.110;11.660;2023-07-13T12:18:55;5.15;;;1.65;;
79348;SDS011;68817;48.110;11.660;2023-07-13T12:21:23;2.72;;;1.50;;
79348;SDS011;68817;48.110;11.660;2023-07-13T12:23:53;3.00;;;1.30;;
79348;SDS011;68817;48.110;11.660;2023-07-13T12:26:18;3.70;;;1.50;;
79348;SDS011;68817;48.110;11.660;2023-07-13T12:28:50;2.85;;;1.50;;
79348;SDS011;68817;48.110;11.660;2023-07-13T12:33:48;4.43;;;1.17;;
79348;SDS011;68817;48.110;11.660;2023-07-13T12:36:15;3.13;;;1.30;;
79348;SDS011;68817;48.110;11.660;2023-07-13T12:38:40;3.38;;;1.27;;
79348;SDS011;68817;48.110;11.660;2023-07-13T12:41:07;3.38;;;1.48;;
79348;SDS011;68817;48.110;11.660;2023-07-13T12:43:34;3.47;;;1.38;;
79348;SDS011;68817;48.110;11.660;2023-07-13T12:46:14;2.65;;;1.40;;
79348;SDS011;68817;48.110;11.660;2023-07-13T12:48:41;3.88;;;1.13;;
79348;SDS011;68817;48.110;11.660;2023-07-13T12:51:10;3.47;;;1.40;;
79348;SDS011;68817;48.110;11.660;2023-07-13T12:53:38;3.33;;;1.70;;
79348;SDS011;68817;48.110;11.660;2023-07-13T12:56:05;4.47;;;1.60;;
79348;SDS011;68817;48.110;11.660;2023-07-13T12:58:40;3.30;;;1.45;;
79348;SDS011;68817;48.110;11.660;2023-07-13T13:01:08;3.30;;;1.50;;
79348;SDS011;68817;48.110;11.660;2023-07-13T13:03:36;3.85;;;1.23;;
79348;SDS011;68817;48.110;11.660;2023-07-13T13:06:17;4.43;;;1.58;;
79348;SDS011;68817;48.110;11.660;2023-07-13T13:08:49;3.10;;;1.30;;
79348;SDS011;68817;48.110;11.660;2023-07-13T13:11:16;3.63;;;1.50;;
79348;SDS011;68817;48.110;11.660;2023-07-13T13:13:45;2.60;;;1.85;;
79348;SDS011;68817;48.110;11.660;2023-07-13T13:16:21;2.33;;;1.33;;
79348;SDS011;68817;48.110;11.660;2023-07-13T13:18:59;4.72;;;1.50;;
79348;SDS011;68817;48.110;11.660;2023-07-13T13:21:27;2.67;;;1.55;;
79348;SDS011;68817;48.110;11.660;2023-07-13T13:23:53;3.50;;;1.52;;
79348;SDS011;68817;48.110;11.660;2023-07-13T13:26:18;4.93;;;1.20;;
79348;SDS011;68817;48.110;11.660;2023-07-13T13:28:45;2.80;;;1.35;;
79348;SDS011;68817;48.110;11.660;2023-07-13T13:31:12;5.05;;;1.45;;
79348;SDS011;68817;48.110;11.660;2023-07-13T13:33:39;1.98;;;1.27;;
79348;SDS011;68817;48.110;11.660;2023-07-13T13:36:20;2.58;;;1.40;;
79348;SDS011;68817;48.110;11.660;2023-07-13T13:38:48;2.97;;;1.40;;
79348;SDS011;68817;48.110;11.660;2023-07-13T13:41:14;3.28;;;1.40;;
79348;SDS011;68817;48.110;11.660;2023-07-13T13:43:43;2.72;;;1.48;;
79348;SDS011;68817;48.110;11.660;2023-07-13T13:46:17;2.58;;;1.58;;
79348;SDS011;68817;48.110;11.660;2023-07-13T13:48:44;3.53;;;1.30;;
79348;SDS011;68817;48.110;11.660;2023-07-13T13:51:17;3.22;;;1.90;;
79348;SDS011;68817;48.110;11.660;2023-07-13T13:53:44;3.78;;;1.58;;
79348;SDS011;68817;48.110;11.660;2023-07-13T13:56:10;2.63;;;1.27;;
79348;SDS011;68817;48.110;11.660;2023-07-13T13:58:37;2.05;;;1.30;;
79348;SDS011;68817;48.110;11.660;2023-07-13T14:01:02;4.22;;;1.90;;
79348;SDS011;68817;48.110;11.660;2023-07-13T14:03:28;2.72;;;1.50;;
79348;SDS011;68817;48.110;11.660;2023-07-13T14:05:53;3.45;;;1.25;;
79348;SDS011;68817;48.110;11.660;2023-07-13T14:08:20;2.60;;;1.38;;
79348;SDS011;68817;48.110;11.660;2023-07-13T14:10:46;2.42;;;1.15;;
79348;SDS011;68817;48.110;11.660;2023-07-13T14:13:25;2.70;;;1.13;;
79348;SDS011;68817;48.110;11.660;2023-07-13T14:15:52;1.73;;;1.10;;
79348;SDS011;68817;48.110;11.660;2023-07-13T14:18:18;1.70;;;1.20;;
79348;SDS011;68817;48.110;11.660;2023-07-13T14:20:44;3.42;;;1.17;;
79348;SDS011;68817;48.110;11.660;2023-07-13T14:23:12;2.55;;;1.17;;
79348;SDS011;68817;48.110;11.660;2023-07-13T14:25:38;2.42;;;1.50;;
79348;SDS011;68817;48.110;11.660;2023-07-13T14:28:15;3.10;;;1.30;;
79348;SDS011;68817;48.110;11.660;2023-07-13T14:30:46;2.53;;;1.38;;
79348;SDS011;68817;48.110;11.660;2023-07-13T14:33:12;2.90;;;1.30;;
79348;SDS011;68817;48.110;11.660;2023-07-13T14:35:38;1.42;;;1.08;;
79348;SDS011;68817;48.110;11.660;2023-07-13T14:38:04;3.05;;;1.30;;
79348;SDS011;68817;48.110;11.660;2023-07-13T14:40:30;2.53;;;1.15;;
79348;SDS011;68817;48.110;11.660;2023-07-13T14:42:56;3.15;;;1.45;;
79348;SDS011;68817;48.110;11.660;2023-07-13T14:45:22;2.70;;;1.30;;
79348;SDS011;68817;48.110;11.660;2023-07-13T14:47:48;2.72;;;1.20;;
79348;SDS011;68817;48.110;11.660;2023-07-13T14:50:15;2.45;;;1.30;;
79348;SDS011;68817;48.110;11.660;2023-07-13T14:52:42;3.75;;;1.42;;
79348;SDS011;68817;48.110;11.660;2023-07-13T14:55:15;4.63;;;1.50;;
79348;SDS011;68817;48.110;11.660;2023-07-13T14:57:42;2.63;;;1.20;;
79348;SDS011;68817;48.110;11.660;2023-07-13T15:00:17;2.88;;;1.02;;
79348;SDS011;68817;48.110;11.660;2023-07-13T15:02:45;2.90;;;1.23;;
79348;SDS011;68817;48.110;11.660;2023-07-13T15:05:15;3.05;;;1.55;;
79348;SDS011;68817;48.110;11.660;2023-07-13T15:07:43;1.67;;;1.10;;
79348;SDS011;68817;48.110;11.660;2023-07-13T15:10:16;2.97;;;1.40;;
79348;SDS011;68817;48.110;11.660;2023-07-13T15:12:41;2.13;;;1.23;;
79348;SDS011;68817;48.110;11.660;2023-07-13T15:15:07;4.88;;;2.00;;
79348;SDS011;68817;48.110;11.660;2023-07-13T15:17:35;16.17;;;5.97;;
79348;SDS011;68817;48.110;11.660;2023-07-13T15:22:41;4.85;;;1.40;;
79348;SDS011;68817;48.110;11.660;2023-07-13T15:25:15;19.40;;;6.43;;
79348;SDS011;68817;48.110;11.660;2023-07-13T15:27:42;6.50;;;2.70;;